Time;durP1;ratioP1;P1;durP2;ratioP2;P2;SDS_P1;SDS_P2;PMS_P1;PMS_P2;Temp;Humidity;BMP_temperature;BMP_pressure;BME280_temperature;BME280_humidity;BME280_pressure;Samples;Min_cycle;Max_cycle;Signal;HPM_P1;HPM_P2
2023/04/28 00:00:27;;;;;;;;;;;;;;;;;;5019979;28;20402;-61
2023/04/28 00:02:54;;;;;;;;;;;;;;;;;;5018899;28;19964;-60
2023/04/28 00:05:21;;;;;;;;;;;;;;;;;;5020276;28;19931;-60
2023/04/28 00:07:55;;;;;;;;;;;;;;;;;;5021710;28;19925;-60
2023/04/28 00:10:29;;;;;;;;;;;;;;;;;;5020386;28;20412;-61
2023/04/28 00:12:56;;;;;;;;;;;;;;;;;;5019913;28;20012;-66
2023/04/28 00:15:23;;;;;;;;;;;;;;;;;;5020553;28;19921;-65
2023/04/28 00:17:57;;;;;;;;;;;;;;;;;;5021110;28;20380;-66
2023/04/28 00:20:24;;;;;;;;;;;;;;;;;;5018263;28;19921;-66
2023/04/28 00:22:58;;;;;;;;;;;;;;;;;;5019143;28;19921;-55
2023/04/28 00:25:25;;;;;;;;;;;;;;;;;;5020742;28;20035;-50
2023/04/28 00:28:00;;;;;;;;;;;;;;;;;;5020563;28;20380;-53
2023/04/28 00:30:27;;;;;;;;;;;;;;;;;;5024437;28;19963;-51
2023/04/28 00:33:01;;;;;;;;;;;;;;;;;;5023430;28;19925;-49
2023/04/28 00:35:28;;;;;;;;;;;;;;;;;;5021995;28;19929;-50
2023/04/28 00:37:55;;;;;;;;;;;;;;;;;;5023064;28;19925;-52
2023/04/28 00:40:29;;;;;;;;;;;;;;;;;;5020891;28;19929;-44
2023/04/28 00:42:56;;;;;;;;;;;;;;;;;;5020196;28;19921;-46
2023/04/28 00:45:23;;;;;;;;;;;;;;;;;;5022605;28;20381;-46
2023/04/28 00:47:57;;;;;;;;;;;;;;;;;;5023712;28;19998;-44
2023/04/28 00:50:24;;;;;;;;;;;;;;;;;;5023126;28;19921;-48
2023/04/28 00:52:58;;;;;;;;;;;;;;;;;;5023993;28;19936;-60
2023/04/28 00:55:25;;;;;;;;;;;;;;;;;;5022266;28;20020;-57
2023/04/28 00:57:52;;;;;;;;;;;;;;;;;;5021908;28;19929;-57
2023/04/28 01:00:26;;;;;;;;;;;;;;;;;;5023705;28;19964;-57
2023/04/28 01:02:53;;;;;;;;;;;;;;;;;;5022661;28;20020;-60
2023/04/28 01:05:28;;;;;;;;;;;;;;;;;;5020764;28;20027;-59
2023/04/28 01:07:55;;;;;;;;;;;;;;;;;;5022293;28;20004;-59
2023/04/28 01:10:22;;;;;;;;;;;;;;;;;;5022357;28;20376;-49
2023/04/28 01:12:55;;;;;;;;;;;;;;;;;;5025527;28;19928;-59
2023/04/28 01:15:22;;;;;;;;;;;;;;;;;;5023107;28;19925;-59
2023/04/28 01:17:50;;;;;;;;;;;;;;;;;;5021175;28;19972;-58
2023/04/28 01:20:23;;;;;;;;;;;;;;;;;;5023233;28;19925;-59
2023/04/28 01:22:50;;;;;;;;;;;;;;;;;;5022840;28;19924;-59
2023/04/28 01:25:17;;;;;;;;;;;;;;;;;;5003542;28;19928;-59
2023/04/28 01:27:51;;;;;;;;;;;;;;;;;;5023526;28;20478;-45
2023/04/28 01:30:18;;;;;;;;;;;;;;;;;;5024848;28;19929;-45
2023/04/28 01:32:52;;;;;;;;;;;;;;;;;;5025564;28;20571;-45
2023/04/28 01:35:19;;;;;;;;;;;;;;;;;;5021101;28;20451;-46
2023/04/28 01:37:46;;;;;;;;;;;;;;;;;;5023368;28;20380;-48
2023/04/28 01:40:20;;;;;;;;;;;;;;;;;;5021855;28;19925;-53
2023/04/28 01:42:47;;;;;;;;;;;;;;;;;;5024019;28;20458;-51
2023/04/28 01:45:21;;;;;;;;;;;;;;;;;;5020016;28;19926;-55
2023/04/28 01:47:48;;;;;;;;;;;;;;;;;;5020996;28;19920;-52
2023/04/28 01:50:15;;;;;;;;;;;;;;;;;;5022970;28;20012;-54
2023/04/28 01:52:49;;;;;;;;;;;;;;;;;;5021271;28;20203;-52
2023/04/28 01:55:16;;;;;;;;;;;;;;;;;;5020257;28;19979;-61
2023/04/28 01:57:50;;;;;;;;;;;;;;;;;;5022130;28;19932;-61
2023/04/28 02:00:17;;;;;;;;;;;;;;;;;;5020823;28;19928;-61
2023/04/28 02:02:45;;;;;;;;;;;;;;;;;;5024100;28;19935;-61
2023/04/28 02:05:18;;;;;;;;;;;;;;;;;;5021636;28;20007;-46
2023/04/28 02:07:46;;;;;;;;;;;;;;;;;;5023396;28;19924;-61
2023/04/28 02:10:20;;;;;;;;;;;;;;;;;;5018252;28;19936;-66
2023/04/28 02:12:47;;;;;;;;;;;;;;;;;;5020163;28;20395;-66
2023/04/28 02:15:14;;;;;;;;;;;;;;;;;;5021965;28;19921;-67
2023/04/28 02:17:47;;;;;;;;;;;;;;;;;;5021376;28;20472;-67
2023/04/28 02:20:14;;;;;;;;;;;;;;;;;;5024155;28;19976;-67
2023/04/28 02:22:48;;;;;;;;;;;;;;;;;;5018646;28;19936;-67
2023/04/28 02:25:15;;;;;;;;;;;;;;;;;;5017969;28;20388;-44
2023/04/28 02:27:42;;;;;;;;;;;;;;;;;;5022561;28;19925;-43
2023/04/28 02:30:16;;;;;;;;;;;;;;;;;;5021082;28;20366;-43
2023/04/28 02:32:43;;;;;;;;;;;;;;;;;;5022741;28;20029;-44
2023/04/28 02:35:17;;;;;;;;;;;;;;;;;;5019422;28;20372;-56
2023/04/28 02:37:45;;;;;;;;;;;;;;;;;;5021285;28;20015;-66
2023/04/28 02:40:12;;;;;;;;;;;;;;;;;;5020990;28;19969;-66
2023/04/28 02:42:46;;;;;;;;;;;;;;;;;;5022251;28;19925;-66
2023/04/28 02:45:13;;;;;;;;;;;;;;;;;;5020516;28;19936;-67
2023/04/28 02:47:47;;;;;;;;;;;;;;;;;;5021611;28;20007;-67
2023/04/28 02:50:14;;;;;;;;;;;;;;;;;;5021088;28;19929;-66
2023/04/28 02:52:41;;;;;;;;;;;;;;;;;;5022017;28;20007;-50
2023/04/28 02:55:22;;;;;;;;;;;;;;;;;;5020701;28;19932;-49
2023/04/28 02:57:49;;;;;;;;;;;;;;;;;;5021225;28;20016;-46
2023/04/28 03:00:23;;;;;;;;;;;;;;;;;;5019317;28;19952;-50
2023/04/28 03:02:50;;;;;;;;;;;;;;;;;;5018863;28;20016;-45
2023/04/28 03:05:25;;;;;;;;;;;;;;;;;;5020878;28;19963;-48
2023/04/28 03:07:52;;;;;;;;;;;;;;;;;;5020738;28;20015;-53
2023/04/28 03:10:19;;;;;;;;;;;;;;;;;;5002974;28;19921;-46
2023/04/28 03:12:52;;;;;;;;;;;;;;;;;;5024180;28;20015;-50
2023/04/28 03:15:19;;;;;;;;;;;;;;;;;;5017161;28;19933;-44
2023/04/28 03:17:53;;;;;;;;;;;;;;;;;;5023111;28;19968;-43
2023/04/28 03:20:20;;;;;;;;;;;;;;;;;;5019979;28;19991;-46
2023/04/28 03:22:54;;;;;;;;;;;;;;;;;;5019227;28;19925;-48
2023/04/28 03:25:22;;;;;;;;;;;;;;;;;;5019822;28;19935;-60
2023/04/28 03:27:49;;;;;;;;;;;;;;;;;;5020790;28;19928;-60
2023/04/28 03:30:22;;;;;;;;;;;;;;;;;;5019593;28;20004;-59
2023/04/28 03:32:49;;;;;;;;;;;;;;;;;;5020882;28;20395;-60
2023/04/28 03:35:17;;;;;;;;;;;;;;;;;;5020539;28;19925;-61
2023/04/28 03:37:50;;;;;;;;;;;;;;;;;;5016746;28;20398;-60
2023/04/28 03:40:18;;;;;;;;;;;;;;;;;;5022285;28;19927;-44
2023/04/28 03:42:51;;;;;;;;;;;;;;;;;;5019922;28;20305;-47
2023/04/28 03:45:18;;;;;;;;;;;;;;;;;;5019613;28;19928;-46
2023/04/28 03:47:45;;;;;;;;;;;;;;;;;;5018748;28;19921;-49
2023/04/28 03:50:19;;;;;;;;;;;;;;;;;;5020201;28;20324;-47
2023/04/28 03:52:46;;;;;;;;;;;;;;;;;;5013418;28;19935;-59
2023/04/28 03:55:20;;;;;;;;;;;;;;;;;;5011654;28;19925;-60
2023/04/28 03:57:47;;;;;;;;;;;;;;;;;;5010454;28;20008;-59
2023/04/28 04:00:14;;;;;;;;;;;;;;;;;;5009459;28;19925;-60
2023/04/28 04:02:48;;;;;;;;;;;;;;;;;;5011104;28;20487;-59
2023/04/28 04:05:15;;;;;;;;;;;;;;;;;;5002827;28;19921;-60
2023/04/28 04:07:49;;;;;;;;;;;;;;;;;;5007131;28;20474;-52
2023/04/28 04:10:17;;;;;;;;;;;;;;;;;;5010203;28;19932;-67
2023/04/28 04:12:44;;;;;;;;;;;;;;;;;;5015886;28;20094;-44
2023/04/28 04:15:17;;;;;;;;;;;;;;;;;;5010646;28;19926;-43
2023/04/28 04:17:44;;;;;;;;;;;;;;;;;;5010643;28;20447;-45
2023/04/28 04:20:18;;;;;;;;;;;;;;;;;;5006731;28;20348;-46
2023/04/28 04:22:46;;;;;;;;;;;;;;;;;;5005430;28;20381;-51
2023/04/28 04:25:13;;;;;;;;;;;;;;;;;;5010041;28;19921;-45
2023/04/28 04:27:49;;;;;;;;;;;;;;;;;;5011231;28;19929;-61
2023/04/28 04:30:16;;;;;;;;;;;;;;;;;;5017569;28;19928;-61
2023/04/28 04:32:49;;;;;;;;;;;;;;;;;;5018107;28;19920;-61
2023/04/28 04:35:17;;;;;;;;;;;;;;;;;;5019463;28;19928;-61
2023/04/28 04:37:44;;;;;;;;;;;;;;;;;;5016029;28;19925;-62
2023/04/28 04:40:17;;;;;;;;;;;;;;;;;;5016792;28;20399;-60
2023/04/28 04:42:44;;;;;;;;;;;;;;;;;;5015989;28;20447;-61
2023/04/28 04:45:18;;;;;;;;;;;;;;;;;;5013106;28;19931;-59
2023/04/28 04:47:45;;;;;;;;;;;;;;;;;;5020038;28;19927;-61
2023/04/28 04:50:12;;;;;;;;;;;;;;;;;;5011989;28;19928;-61
2023/04/28 04:52:46;;;;;;;;;;;;;;;;;;5018323;28;20400;-61
2023/04/28 04:55:13;;;;;;;;;;;;;;;;;;5016938;28;19928;-61
2023/04/28 04:57:41;;;;;;;;;;;;;;;;;;5021201;28;20035;-60
2023/04/28 05:00:15;;;;;;;;;;;;;;;;;;5017296;28;19929;-61
2023/04/28 05:02:42;;;;;;;;;;;;;;;;;;5019505;28;19956;-66
2023/04/28 05:05:16;;;;;;;;;;;;;;;;;;5002555;28;20368;-57
2023/04/28 05:07:48;;;;;;;;;;;;;;;;;;5021008;28;19927;-46
2023/04/28 05:10:15;;;;;;;;;;;;;;;;;;5015524;28;19921;-50
2023/04/28 05:12:48;;;;;;;;;;;;;;;;;;5019725;28;20451;-48
2023/04/28 05:15:15;;;;;;;;;;;;;;;;;;5022175;28;19925;-51
2023/04/28 05:17:49;;;;;;;;;;;;;;;;;;5024288;28;20019;-50
2023/04/28 05:20:16;;;;;;;;;;;;;;;;;;5022504;28;19921;-51
2023/04/28 05:22:43;;;;;;;;;;;;;;;;;;5021988;28;21193;-56
2023/04/28 05:25:17;;;;;;;;;;;;;;;;;;5021112;28;19927;-59
2023/04/28 05:27:44;;;;;;;;;;;;;;;;;;5022260;28;19927;-57
2023/04/28 05:30:18;;;;;;;;;;;;;;;;;;5021409;28;20067;-57
2023/04/28 05:32:45;;;;;;;;;;;;;;;;;;5024304;28;20311;-46
2023/04/28 05:35:13;;;;;;;;;;;;;;;;;;5021221;28;19932;-49
2023/04/28 05:37:47;;;;;;;;;;;;;;;;;;5021955;28;19921;-52
2023/04/28 05:40:14;;;;;;;;;;;;;;;;;;5019957;28;19921;-55
2023/04/28 05:42:48;;;;;;;;;;;;;;;;;;5021994;28;19929;-49
2023/04/28 05:45:15;;;;;;;;;;;;;;;;;;5021290;28;19927;-53
2023/04/28 05:47:43;;;;;;;;;;;;;;;;;;5020384;28;19921;-55
2023/04/28 05:50:16;;;;;;;;;;;;;;;;;;5019884;28;20372;-46
2023/04/28 05:52:43;;;;;;;;;;;;;;;;;;5020855;28;19921;-44
2023/04/28 05:55:11;;;;;;;;;;;;;;;;;;5019163;28;19927;-43
2023/04/28 05:57:44;;;;;;;;;;;;;;;;;;5018974;28;19930;-44
2023/04/28 06:00:19;;;;;;;;;;;;;;;;;;5023180;28;19920;-48
2023/04/28 06:02:57;;;;;;;;;;;;;;;;;;5021311;28;19965;-52
2023/04/28 06:05:24;;;;;;;;;;;;;;;;;;5021041;28;19929;-52
2023/04/28 06:07:52;;;;;;;;;;;;;;;;;;5019684;28;19929;-51
2023/04/28 06:10:26;;;;;;;;;;;;;;;;;;5019272;28;20387;-53
2023/04/28 06:12:53;;;;;;;;;;;;;;;;;;5019295;28;19940;-52
2023/04/28 06:15:27;;;;;;;;;;;;;;;;;;5020333;28;19939;-53
2023/04/28 06:18:02;;;;;;;;;;;;;;;;;;5022656;28;19924;-60
2023/04/28 06:20:29;;;;;;;;;;;;;;;;;;5019253;28;20478;-60
2023/04/28 06:22:56;;;;;;;;;;;;;;;;;;5018103;28;20396;-61
2023/04/28 06:25:29;;;;;;;;;;;;;;;;;;5017401;28;20017;-61
2023/04/28 06:27:56;;;;;;;;;;;;;;;;;;5019557;28;19928;-54
2023/04/28 06:30:30;;;;;;;;;;;;;;;;;;5019092;28;21858;-53
2023/04/28 06:32:58;;;;;;;;;;;;;;;;;;5025308;28;19931;-61
2023/04/28 06:35:25;;;;;;;;;;;;;;;;;;5018974;28;20051;-61
2023/04/28 06:37:58;;;;;;;;;;;;;;;;;;5020351;28;19921;-61
2023/04/28 06:40:25;;;;;;;;;;;;;;;;;;5020672;28;19925;-60
2023/04/28 06:42:59;;;;;;;;;;;;;;;;;;5020211;28;19967;-61
2023/04/28 06:45:26;;;;;;;;;;;;;;;;;;5018347;28;19929;-61
2023/04/28 06:47:56;;;;;;;;;;;;;;;;;;5021297;28;20384;-61
2023/04/28 06:50:31;;;;;;;;;;;;;;;;;;5016462;28;20018;-61
2023/04/28 06:52:58;;;;;;;;;;;;;;;;;;5017647;28;20380;-61
2023/04/28 06:55:25;;;;;;;;;;;;;;;;;;5020059;28;19921;-60
2023/04/28 06:57:58;;;;;;;;;;;;;;;;;;5018786;28;19963;-45
2023/04/28 07:00:25;;;;;;;;;;;;;;;;;;5019703;28;20418;-50
2023/04/28 07:02:59;;;;;;;;;;;;;;;;;;5020685;28;19940;-51
2023/04/28 07:05:27;;;;;;;;;;;;;;;;;;5020959;28;19928;-51
2023/04/28 07:08:01;;;;;;;;;;;;;;;;;;5020939;28;19935;-51
2023/04/28 07:10:28;;;;;;;;;;;;;;;;;;5020489;28;20280;-51
2023/04/28 07:12:56;;;;;;;;;;;;;;;;;;5019562;28;20023;-53
2023/04/28 07:15:30;;;;;;;;;;;;;;;;;;5022489;28;20368;-56
2023/04/28 07:17:57;;;;;;;;;;;;;;;;;;5021412;28;20435;-58
2023/04/28 07:20:24;;;;;;;;;;;;;;;;;;5016811;28;19936;-55
2023/04/28 07:22:58;;;;;;;;;;;;;;;;;;5017061;28;19929;-56
2023/04/28 07:25:25;;;;;;;;;;;;;;;;;;5020629;28;19925;-56
2023/04/28 07:28:00;;;;;;;;;;;;;;;;;;5016965;28;19932;-58
2023/04/28 07:30:27;;;;;;;;;;;;;;;;;;5019413;28;19929;-55
2023/04/28 07:32:54;;;;;;;;;;;;;;;;;;5018982;28;19928;-59
2023/04/28 07:35:27;;;;;;;;;;;;;;;;;;5020704;28;19932;-55
2023/04/28 07:37:55;;;;;;;;;;;;;;;;;;5020250;28;20376;-57
2023/04/28 07:40:22;;;;;;;;;;;;;;;;;;5016645;28;19956;-59
2023/04/28 07:42:56;;;;;;;;;;;;;;;;;;5019605;28;19964;-59
2023/04/28 07:45:26;;;;;;;;;;;;;;;;;;5015083;28;19925;-60
2023/04/28 07:48:00;;;;;;;;;;;;;;;;;;5020069;28;20010;-59
2023/04/28 07:50:27;;;;;;;;;;;;;;;;;;5018072;28;19928;-58
2023/04/28 07:52:54;;;;;;;;;;;;;;;;;;5018262;28;20427;-59
2023/04/28 07:55:27;;;;;;;;;;;;;;;;;;5018809;28;19940;-50
2023/04/28 07:57:55;;;;;;;;;;;;;;;;;;5014962;28;20015;-60
2023/04/28 08:00:29;;;;;;;;;;;;;;;;;;5016943;28;19921;-61
2023/04/28 08:02:56;;;;;;;;;;;;;;;;;;5019636;28;19935;-61
2023/04/28 08:05:24;;;;;;;;;;;;;;;;;;5016838;28;19925;-60
2023/04/28 08:07:57;;;;;;;;;;;;;;;;;;5019032;28;19921;-60
2023/04/28 08:10:25;;;;;;;;;;;;;;;;;;5018193;28;19921;-61
2023/04/28 08:12:58;;;;;;;;;;;;;;;;;;5021032;28;19928;-60
2023/04/28 08:15:26;;;;;;;;;;;;;;;;;;5019445;28;20303;-60
2023/04/28 08:17:53;;;;;;;;;;;;;;;;;;5013031;28;20210;-61
2023/04/28 08:20:28;;;;;;;;;;;;;;;;;;4999161;28;19921;-60
2023/04/28 08:22:55;;;;;;;;;;;;;;;;;;4998616;28;20293;-59
2023/04/28 08:25:22;;;;;;;;;;;;;;;;;;4998539;28;19935;-63
2023/04/28 08:27:55;;;;;;;;;;;;;;;;;;4998983;28;19925;-63
2023/04/28 08:30:23;;;;;;;;;;;;;;;;;;4996953;28;20440;-63
2023/04/28 08:32:56;;;;;;;;;;;;;;;;;;4998682;28;19930;-63
2023/04/28 08:35:23;;;;;;;;;;;;;;;;;;4999686;28;20382;-63
2023/04/28 08:37:50;;;;;;;;;;;;;;;;;;4998680;28;20395;-63
2023/04/28 08:40:25;;;;;;;;;;;;;;;;;;4999351;28;19926;-51
2023/04/28 08:42:52;;;;;;;;;;;;;;;;;;5000502;28;19932;-46
2023/04/28 08:45:26;;;;;;;;;;;;;;;;;;5002724;28;20273;-47
2023/04/28 08:47:55;;;;;;;;;;;;;;;;;;4999055;28;20032;-47
2023/04/28 08:50:24;;;;;;;;;;;;;;;;;;5004260;28;19921;-63
2023/04/28 08:52:58;;;;;;;;;;;;;;;;;;5005120;28;19930;-63
2023/04/28 08:55:26;;;;;;;;;;;;;;;;;;5001224;28;20368;-48
2023/04/28 08:57:59;;;;;;;;;;;;;;;;;;5004658;28;22033;-50
2023/04/28 09:00:27;;;;;;;;;;;;;;;;;;5004296;28;20353;-51
2023/04/28 09:02:54;;;;;;;;;;;;;;;;;;5000962;28;20028;-49
2023/04/28 09:05:27;;;;;;;;;;;;;;;;;;4988422;28;19947;-52
2023/04/28 09:08:02;;;;;;;;;;;;;;;;;;5003320;28;20353;-52
2023/04/28 09:10:37;;;;;;;;;;;;;;;;;;5000440;28;20361;-60
2023/04/28 09:13:04;;;;;;;;;;;;;;;;;;5004998;28;20438;-60
2023/04/28 09:15:40;;;;;;;;;;;;;;;;;;4999693;28;19929;-60
2023/04/28 09:18:07;;;;;;;;;;;;;;;;;;5000107;28;20376;-60
2023/04/28 09:20:41;;;;;;;;;;;;;;;;;;5000626;28;20304;-64
2023/04/28 09:23:08;;;;;;;;;;;;;;;;;;5001280;28;20487;-51
2023/04/28 09:25:35;;;;;;;;;;;;;;;;;;5001448;28;20384;-49
2023/04/28 09:28:08;;;;;;;;;;;;;;;;;;5000176;28;19932;-50
2023/04/28 09:30:35;;;;;;;;;;;;;;;;;;5004061;28;19921;-47
2023/04/28 09:33:09;;;;;;;;;;;;;;;;;;5000968;28;19929;-51
2023/04/28 09:35:37;;;;;;;;;;;;;;;;;;4980795;28;20016;-51
2023/04/28 09:38:10;;;;;;;;;;;;;;;;;;5000115;28;19921;-58
2023/04/28 09:40:37;;;;;;;;;;;;;;;;;;4998922;28;19922;-58
2023/04/28 09:43:05;;;;;;;;;;;;;;;;;;4999097;28;19921;-58
2023/04/28 09:45:47;;;;;;;;;;;;;;;;;;5003043;28;19980;-56
2023/04/28 09:48:14;;;;;;;;;;;;;;;;;;5001319;28;20004;-61
2023/04/28 09:50:49;;;;;;;;;;;;;;;;;;5003318;28;20292;-50
2023/04/28 09:53:16;;;;;;;;;;;;;;;;;;4998408;28;20068;-50
2023/04/28 09:55:43;;;;;;;;;;;;;;;;;;5002145;28;19929;-51
2023/04/28 09:58:25;;;;;;;;;;;;;;;;;;4998987;28;20448;-50
2023/04/28 10:00:52;;;;;;;;;;;;;;;;;;4999619;28;19929;-50
2023/04/28 10:03:27;;;;;;;;;;;;;;;;;;4986926;28;20023;-55
2023/04/28 10:05:55;;;;;;;;;;;;;;;;;;5000249;28;20444;-59
2023/04/28 10:08:23;;;;;;;;;;;;;;;;;;5000197;28;20294;-59
2023/04/28 10:10:57;;;;;;;;;;;;;;;;;;4996775;28;19994;-52
2023/04/28 10:13:24;;;;;;;;;;;;;;;;;;4999393;28;19925;-53
2023/04/28 10:15:57;;;;;;;;;;;;;;;;;;4995799;28;19925;-61
2023/04/28 10:18:33;;;;;;;;;;;;;;;;;;5002038;28;20308;-48
2023/04/28 10:21:08;;;;;;;;;;;;;;;;;;5003208;28;20304;-46
2023/04/28 10:23:35;;;;;;;;;;;;;;;;;;5000746;28;19944;-49
2023/04/28 10:26:02;;;;;;;;;;;;;;;;;;4999890;28;20032;-50
2023/04/28 10:28:35;;;;;;;;;;;;;;;;;;4997404;28;19921;-48
2023/04/28 10:31:02;;;;;;;;;;;;;;;;;;5003744;28;20013;-52
2023/04/28 10:33:37;;;;;;;;;;;;;;;;;;5002544;28;19925;-46
2023/04/28 10:36:05;;;;;;;;;;;;;;;;;;5000992;28;20004;-63
2023/04/28 10:38:32;;;;;;;;;;;;;;;;;;5001435;28;19929;-63
2023/04/28 10:41:05;;;;;;;;;;;;;;;;;;5000431;28;19929;-63
2023/04/28 10:43:32;;;;;;;;;;;;;;;;;;5001942;28;19931;-65
2023/04/28 10:46:07;;;;;;;;;;;;;;;;;;5000936;28;19925;-52
2023/04/28 10:48:38;;;;;;;;;;;;;;;;;;5001332;28;19933;-52
2023/04/28 10:51:06;;;;;;;;;;;;;;;;;;5001995;28;19968;-53
2023/04/28 10:53:39;;;;;;;;;;;;;;;;;;4998511;28;19947;-57
2023/04/28 10:56:06;;;;;;;;;;;;;;;;;;4996800;28;19925;-55
2023/04/28 10:58:36;;;;;;;;;;;;;;;;;;4998267;28;19928;-48
2023/04/28 11:01:09;;;;;;;;;;;;;;;;;;5001320;28;19931;-48
2023/04/28 11:03:36;;;;;;;;;;;;;;;;;;5001041;28;19940;-55
2023/04/28 11:06:10;;;;;;;;;;;;;;;;;;5001658;28;20399;-54
2023/04/28 11:08:37;;;;;;;;;;;;;;;;;;4998995;28;19964;-56
2023/04/28 11:11:14;;;;;;;;;;;;;;;;;;5001107;28;20010;-56
2023/04/28 11:13:42;;;;;;;;;;;;;;;;;;5003446;28;19928;-46
2023/04/28 11:16:16;;;;;;;;;;;;;;;;;;4999580;28;19925;-60
2023/04/28 11:18:43;;;;;;;;;;;;;;;;;;4998897;28;19936;-60
2023/04/28 11:21:19;;;;;;;;;;;;;;;;;;4999445;28;19933;-60
2023/04/28 11:23:46;;;;;;;;;;;;;;;;;;5000495;28;19925;-61
2023/04/28 11:26:13;;;;;;;;;;;;;;;;;;5000898;28;20419;-60
2023/04/28 11:28:47;;;;;;;;;;;;;;;;;;4998281;28;20256;-60
2023/04/28 11:31:19;;;;;;;;;;;;;;;;;;5000726;28;20412;-59
2023/04/28 11:33:53;;;;;;;;;;;;;;;;;;5001117;28;19930;-58
2023/04/28 11:36:20;;;;;;;;;;;;;;;;;;5000118;28;19933;-57
2023/04/28 11:38:55;;;;;;;;;;;;;;;;;;5000935;28;19931;-55
2023/04/28 11:41:22;;;;;;;;;;;;;;;;;;4999005;28;19921;-61
2023/04/28 11:43:49;;;;;;;;;;;;;;;;;;4998827;28;19929;-60
2023/04/28 11:46:22;;;;;;;;;;;;;;;;;;4999446;28;19932;-54
2023/04/28 11:48:50;;;;;;;;;;;;;;;;;;5000231;28;19976;-57
2023/04/28 11:51:23;;;;;;;;;;;;;;;;;;5000630;28;19929;-57
2023/04/28 11:53:51;;;;;;;;;;;;;;;;;;4997726;28;19921;-56
2023/04/28 11:56:25;;;;;;;;;;;;;;;;;;5002210;28;19928;-55
2023/04/28 11:58:52;;;;;;;;;;;;;;;;;;5001049;28;19925;-56
2023/04/28 12:01:19;;;;;;;;;;;;;;;;;;4999368;28;20012;-59
2023/04/28 12:03:54;;;;;;;;;;;;;;;;;;4999066;28;19921;-51
2023/04/28 12:06:21;;;;;;;;;;;;;;;;;;5002451;28;19921;-49
2023/04/28 12:08:56;;;;;;;;;;;;;;;;;;4997434;28;19926;-52
2023/04/28 12:11:23;;;;;;;;;;;;;;;;;;4998415;28;19932;-48
2023/04/28 12:13:56;;;;;;;;;;;;;;;;;;4999445;28;20008;-46
2023/04/28 12:16:24;;;;;;;;;;;;;;;;;;5000400;28;19929;-46
2023/04/28 12:18:51;;;;;;;;;;;;;;;;;;5007785;28;19936;-60
2023/04/28 12:21:25;;;;;;;;;;;;;;;;;;5015154;28;19921;-61
2023/04/28 12:23:53;;;;;;;;;;;;;;;;;;5019194;28;19924;-60
2023/04/28 12:26:26;;;;;;;;;;;;;;;;;;5022071;28;19944;-61
2023/04/28 12:28:53;;;;;;;;;;;;;;;;;;5022334;28;20308;-62
2023/04/28 12:31:27;;;;;;;;;;;;;;;;;;5019483;28;19921;-60
2023/04/28 12:33:54;;;;;;;;;;;;;;;;;;5022019;28;19925;-61
2023/04/28 12:36:29;;;;;;;;;;;;;;;;;;5022817;28;19972;-51
2023/04/28 12:38:56;;;;;;;;;;;;;;;;;;5021403;28;20380;-49
2023/04/28 12:41:30;;;;;;;;;;;;;;;;;;5019856;28;20016;-49
2023/04/28 12:43:57;;;;;;;;;;;;;;;;;;5020187;28;19941;-50
2023/04/28 12:46:24;;;;;;;;;;;;;;;;;;5021345;28;20364;-59
2023/04/28 12:48:57;;;;;;;;;;;;;;;;;;5024425;28;19933;-48
2023/04/28 12:51:28;;;;;;;;;;;;;;;;;;5019738;28;19929;-61
2023/04/28 12:54:04;;;;;;;;;;;;;;;;;;5023558;28;19933;-61
2023/04/28 12:56:31;;;;;;;;;;;;;;;;;;5020584;28;20013;-61
2023/04/28 12:58:58;;;;;;;;;;;;;;;;;;5003682;28;20769;-61
2023/04/28 13:01:32;;;;;;;;;;;;;;;;;;5019478;28;19927;-61
2023/04/28 13:03:59;;;;;;;;;;;;;;;;;;5024535;28;19925;-61
2023/04/28 13:06:34;;;;;;;;;;;;;;;;;;5020317;28;20395;-60
2023/04/28 13:09:02;;;;;;;;;;;;;;;;;;5022381;28;20284;-60
2023/04/28 13:11:30;;;;;;;;;;;;;;;;;;5022718;28;20028;-60
2023/04/28 13:14:04;;;;;;;;;;;;;;;;;;5021238;28;19929;-61
2023/04/28 13:16:32;;;;;;;;;;;;;;;;;;5003927;28;19921;-47
2023/04/28 13:19:12;;;;;;;;;;;;;;;;;;5020075;28;19921;-48
2023/04/28 13:21:40;;;;;;;;;;;;;;;;;;5020341;28;19925;-51
2023/04/28 13:24:13;;;;;;;;;;;;;;;;;;5008340;28;19929;-54
2023/04/28 13:26:43;;;;;;;;;;;;;;;;;;5022416;28;19960;-49
2023/04/28 13:29:10;;;;;;;;;;;;;;;;;;5022099;28;19925;-46
2023/04/28 13:31:44;;;;;;;;;;;;;;;;;;5022370;28;19960;-47
2023/04/28 13:34:14;;;;;;;;;;;;;;;;;;5022556;28;20585;-57
2023/04/28 13:36:42;;;;;;;;;;;;;;;;;;5022357;28;20024;-55
2023/04/28 13:39:17;;;;;;;;;;;;;;;;;;5020088;28;20304;-56
2023/04/28 13:41:44;;;;;;;;;;;;;;;;;;5018685;28;19931;-54
2023/04/28 13:44:18;;;;;;;;;;;;;;;;;;5019933;28;20414;-46
2023/04/28 13:46:45;;;;;;;;;;;;;;;;;;5022224;28;19990;-57
2023/04/28 13:49:12;;;;;;;;;;;;;;;;;;5021023;28;19975;-55
2023/04/28 13:51:46;;;;;;;;;;;;;;;;;;5017241;28;19920;-58
2023/04/28 13:54:13;;;;;;;;;;;;;;;;;;5020782;28;20019;-56
2023/04/28 13:56:40;;;;;;;;;;;;;;;;;;5021642;28;19924;-58
2023/04/28 13:59:14;;;;;;;;;;;;;;;;;;5015132;28;20594;-57
2023/04/28 14:01:41;;;;;;;;;;;;;;;;;;5001469;28;20020;-58
2023/04/28 14:04:15;;;;;;;;;;;;;;;;;;5021834;28;20032;-59
2023/04/28 14:06:42;;;;;;;;;;;;;;;;;;5021310;28;19935;-55
2023/04/28 14:09:09;;;;;;;;;;;;;;;;;;5020486;28;19936;-53
2023/04/28 14:11:44;;;;;;;;;;;;;;;;;;5016779;28;19929;-60
2023/04/28 14:14:11;;;;;;;;;;;;;;;;;;5015731;28;19921;-63
2023/04/28 14:16:46;;;;;;;;;;;;;;;;;;5021532;28;19931;-60
2023/04/28 14:19:16;;;;;;;;;;;;;;;;;;5020058;28;20023;-58
2023/04/28 14:21:43;;;;;;;;;;;;;;;;;;5016074;28;19925;-54
2023/04/28 14:24:17;;;;;;;;;;;;;;;;;;5018318;28;20016;-58
2023/04/28 14:26:45;;;;;;;;;;;;;;;;;;5023059;28;19925;-55
2023/04/28 14:29:12;;;;;;;;;;;;;;;;;;5016853;28;19932;-60
2023/04/28 14:31:45;;;;;;;;;;;;;;;;;;5018253;28;19927;-50
2023/04/28 14:34:13;;;;;;;;;;;;;;;;;;5021126;28;20015;-51
2023/04/28 14:36:41;;;;;;;;;;;;;;;;;;5017069;28;20044;-53
2023/04/28 14:39:15;;;;;;;;;;;;;;;;;;5018121;28;19928;-53
2023/04/28 14:41:42;;;;;;;;;;;;;;;;;;5021297;28;19940;-54
2023/04/28 14:44:16;;;;;;;;;;;;;;;;;;5018840;28;19939;-47
2023/04/28 14:46:43;;;;;;;;;;;;;;;;;;5018669;28;19921;-53
2023/04/28 14:49:10;;;;;;;;;;;;;;;;;;5021475;28;19948;-48
2023/04/28 14:51:44;;;;;;;;;;;;;;;;;;5016529;28;19927;-61
2023/04/28 14:54:12;;;;;;;;;;;;;;;;;;5022541;28;19960;-61
2023/04/28 14:56:46;;;;;;;;;;;;;;;;;;5020608;28;19928;-61
2023/04/28 14:59:13;;;;;;;;;;;;;;;;;;5017450;28;20016;-61
2023/04/28 15:01:41;;;;;;;;;;;;;;;;;;5018289;28;19925;-61
2023/04/28 15:04:15;;;;;;;;;;;;;;;;;;5022066;28;19929;-61
2023/04/28 15:06:42;;;;;;;;;;;;;;;;;;5017751;28;19925;-51
2023/04/28 15:09:16;;;;;;;;;;;;;;;;;;5019231;28;19921;-60
2023/04/28 15:11:50;;;;;;;;;;;;;;;;;;5019904;28;19921;-63
2023/04/28 15:14:17;;;;;;;;;;;;;;;;;;5020199;28;20339;-63
2023/04/28 15:16:44;;;;;;;;;;;;;;;;;;5023011;28;20507;-62
2023/04/28 15:19:17;;;;;;;;;;;;;;;;;;5021798;28;20671;-63
2023/04/28 15:21:44;;;;;;;;;;;;;;;;;;5018336;28;19928;-63
2023/04/28 15:24:18;;;;;;;;;;;;;;;;;;5019072;28;19931;-63
2023/04/28 15:26:46;;;;;;;;;;;;;;;;;;5016819;28;19971;-63
2023/04/28 15:29:13;;;;;;;;;;;;;;;;;;5018718;28;20064;-64
2023/04/28 15:31:47;;;;;;;;;;;;;;;;;;5023725;28;19928;-64
2023/04/28 15:34:14;;;;;;;;;;;;;;;;;;5015867;28;19999;-64
2023/04/28 15:36:42;;;;;;;;;;;;;;;;;;5013791;28;20412;-63
2023/04/28 15:39:16;;;;;;;;;;;;;;;;;;5014814;28;20314;-65
2023/04/28 15:41:43;;;;;;;;;;;;;;;;;;5008088;28;19945;-62
2023/04/28 15:44:16;;;;;;;;;;;;;;;;;;5009979;28;19987;-61
2023/04/28 15:46:44;;;;;;;;;;;;;;;;;;5018134;28;20014;-60
2023/04/28 15:49:11;;;;;;;;;;;;;;;;;;5014961;28;20407;-59
2023/04/28 15:51:45;;;;;;;;;;;;;;;;;;5016570;28;19931;-59
2023/04/28 15:54:12;;;;;;;;;;;;;;;;;;5017019;28;20397;-59
2023/04/28 15:56:39;;;;;;;;;;;;;;;;;;5013867;28;20397;-59
2023/04/28 15:59:14;;;;;;;;;;;;;;;;;;5000575;28;19924;-59
2023/04/28 16:01:42;;;;;;;;;;;;;;;;;;5021100;28;19927;-59
2023/04/28 16:04:16;;;;;;;;;;;;;;;;;;5015835;28;19978;-59
2023/04/28 16:06:43;;;;;;;;;;;;;;;;;;5016174;28;20407;-60
2023/04/28 16:09:10;;;;;;;;;;;;;;;;;;5017452;28;20066;-60
2023/04/28 16:11:44;;;;;;;;;;;;;;;;;;5018026;28;19931;-61
2023/04/28 16:14:11;;;;;;;;;;;;;;;;;;5012837;28;19921;-57
2023/04/28 16:16:44;;;;;;;;;;;;;;;;;;5015722;28;19921;-59
2023/04/28 16:19:14;;;;;;;;;;;;;;;;;;5017171;28;19933;-60
2023/04/28 16:21:48;;;;;;;;;;;;;;;;;;5013153;28;19929;-60
2023/04/28 16:24:15;;;;;;;;;;;;;;;;;;5016488;28;19965;-61
2023/04/28 16:26:42;;;;;;;;;;;;;;;;;;5014661;28;19957;-60
2023/04/28 16:29:15;;;;;;;;;;;;;;;;;;5018057;28;20381;-60
2023/04/28 16:31:42;;;;;;;;;;;;;;;;;;5016606;28;19935;-58
2023/04/28 16:34:18;;;;;;;;;;;;;;;;;;5016216;28;20029;-59
2023/04/28 16:36:45;;;;;;;;;;;;;;;;;;5015017;28;19929;-59
2023/04/28 16:39:12;;;;;;;;;;;;;;;;;;4999334;28;19936;-60
2023/04/28 16:41:46;;;;;;;;;;;;;;;;;;5012449;28;19928;-60
2023/04/28 16:44:13;;;;;;;;;;;;;;;;;;5006069;28;20311;-60
2023/04/28 16:46:40;;;;;;;;;;;;;;;;;;5011247;28;20419;-59
2023/04/28 16:49:14;;;;;;;;;;;;;;;;;;5008786;28;19935;-59
2023/04/28 16:51:41;;;;;;;;;;;;;;;;;;5013164;28;19925;-57
2023/04/28 16:54:15;;;;;;;;;;;;;;;;;;5014293;28;21463;-63
2023/04/28 16:56:42;;;;;;;;;;;;;;;;;;5009607;28;19932;-61
2023/04/28 16:59:09;;;;;;;;;;;;;;;;;;5005492;28;20249;-62
2023/04/28 17:01:43;;;;;;;;;;;;;;;;;;5011511;28;19952;-62
2023/04/28 17:04:10;;;;;;;;;;;;;;;;;;5010234;28;20797;-62